Terminal Aerodrome Forecast
Issued by NWS

Home | Current Version | Previous Version | Text Only | Print | Product List | Glossary On
Versions: 1 2 3 4 5 6 7 8 9 10 11 12
000
FTUS44 KOUN 241120
TAFCSM
TAF
KCSM 241120Z 2412/2512 16014KT P6SM SCT080 BKN250
     FM241500 17016G24KT P6SM VCSH BKN060
      TEMPO 2416/2420 6SM SHRA SCT025 OVC050
     FM250500 14013KT 6SM SHRA BKN040=

USA.gov is the U.S. government's official web portal to all federal, state and local government web resources and services.